createdAt,value
2017-06-29T00:04:18.518Z,57.9
2017-06-29T00:15:19.102Z,58.3
2017-06-29T00:26:18.439Z,58.4
2017-06-29T00:37:18.732Z,58.5
2017-06-29T00:48:18.680Z,58.1
2017-06-29T00:59:18.596Z,54.1
2017-06-29T01:10:19.360Z,53
2017-06-29T01:21:18.618Z,51.7
2017-06-29T01:32:18.680Z,51.4
2017-06-29T01:43:18.588Z,49.3
2017-06-29T01:54:18.368Z,49.2
2017-06-29T02:05:19.103Z,48.3
2017-06-29T02:16:18.775Z,47.2
2017-06-29T02:27:18.148Z,50.3
2017-06-29T02:38:18.913Z,51.2
2017-06-29T02:49:18.419Z,51.2
2017-06-29T03:00:19.148Z,51.7
2017-06-29T03:11:18.684Z,51.9
2017-06-29T03:22:18.510Z,52.6
2017-06-29T03:33:18.746Z,52.5
2017-06-29T03:44:19.152Z,52.9
2017-06-29T03:55:18.447Z,49.6
2017-06-29T04:06:18.446Z,48.9
2017-06-29T04:17:19.223Z,47.9
2017-06-29T04:28:18.719Z,47.6
2017-06-29T04:39:18.821Z,46.9
2017-06-29T04:50:19.575Z,46.2
2017-06-29T05:01:18.857Z,45.1
2017-06-29T05:12:19.037Z,44.3
2017-06-29T05:23:18.851Z,44.1
2017-06-29T05:34:19.807Z,43.5
2017-06-29T05:45:19.140Z,46.7
2017-06-29T05:56:19.212Z,48.7
2017-06-29T06:07:18.748Z,49.4
2017-06-29T06:18:18.399Z,50.2
2017-06-29T06:29:19.204Z,50.9
2017-06-29T06:40:19.098Z,51.6
2017-06-29T06:51:18.104Z,52.1
2017-06-29T07:02:18.654Z,49.9
2017-06-29T07:13:18.275Z,48.6
2017-06-29T07:24:18.967Z,47.5
2017-06-29T07:35:18.279Z,47.1
2017-06-29T07:46:18.865Z,47.2
2017-06-29T07:57:19.260Z,46.9
2017-06-29T08:08:18.414Z,46.4
2017-06-29T08:19:18.542Z,45.4
2017-06-29T08:30:19.280Z,44.8
2017-06-29T08:41:18.650Z,43.6
2017-06-29T08:52:18.939Z,43.6
2017-06-29T09:03:18.504Z,46.3
2017-06-29T09:14:18.813Z,47.5
2017-06-29T09:25:18.862Z,47.9
2017-06-29T09:36:18.908Z,48.9
2017-06-29T09:47:18.319Z,48.9
2017-06-29T09:58:18.644Z,49.4
2017-06-29T10:09:19.151Z,49.6
2017-06-29T10:20:18.500Z,49.8
2017-06-29T10:31:19.108Z,49.5
2017-06-29T10:42:18.754Z,47.7
2017-06-29T10:53:18.870Z,47.5
2017-06-29T11:04:18.489Z,46.6
2017-06-29T11:15:18.584Z,46.4
2017-06-29T11:26:19.117Z,45.3
2017-06-29T11:37:19.120Z,44.7
2017-06-29T11:48:18.851Z,44.1
2017-06-29T11:59:18.849Z,45.4
2017-06-29T12:10:18.767Z,47.2
2017-06-29T12:21:18.520Z,47.3
2017-06-29T12:32:18.694Z,48.1
2017-06-29T12:43:18.733Z,48.6
2017-06-29T12:54:18.196Z,56.3
2017-06-29T13:05:19.531Z,48.9
2017-06-29T13:16:18.381Z,49.1
2017-06-29T13:27:18.344Z,49.9
2017-06-29T13:38:19.059Z,50.7
2017-06-29T13:49:18.530Z,50.6
2017-06-29T14:00:18.981Z,51
2017-06-29T14:11:19.364Z,51
2017-06-29T14:22:18.898Z,50.3
2017-06-29T14:33:18.756Z,48.4
2017-06-29T14:44:18.643Z,47.9
2017-06-29T14:55:18.561Z,47.5
2017-06-29T15:06:18.473Z,47.1
2017-06-29T15:17:18.980Z,46.9
2017-06-29T15:28:18.373Z,46
2017-06-29T15:39:18.476Z,45.4
2017-06-29T15:50:18.311Z,44.9
2017-06-29T16:01:18.417Z,44.7
2017-06-29T16:12:19.173Z,48.1
2017-06-29T16:23:19.169Z,49.3
2017-06-29T16:34:18.298Z,50
2017-06-29T16:45:19.610Z,50.3
2017-06-29T16:56:18.711Z,51
2017-06-29T17:07:18.431Z,51.2
2017-06-29T17:18:19.322Z,51.8
2017-06-29T17:29:18.369Z,50.8
2017-06-29T17:40:19.217Z,48.3
2017-06-29T17:51:18.831Z,48
2017-06-29T18:02:18.846Z,47.8
2017-06-29T18:13:18.344Z,47.1
2017-06-29T18:24:18.753Z,46.2
2017-06-29T18:35:18.982Z,45.9
2017-06-29T18:46:18.543Z,44.9
2017-06-29T18:57:18.709Z,44.5
2017-06-29T19:08:18.701Z,43.8
2017-06-29T19:19:18.398Z,43.4
2017-06-29T19:30:19.347Z,45.3
2017-06-29T19:41:18.390Z,47
2017-06-29T19:52:18.908Z,48.1
2017-06-29T20:03:18.510Z,48.4
2017-06-29T20:14:18.861Z,48.8
2017-06-29T20:25:18.784Z,49.1
2017-06-29T20:36:18.220Z,47.5
2017-06-29T20:47:18.984Z,46.2
2017-06-29T20:58:18.942Z,45.3
2017-06-29T21:09:18.589Z,45.1
2017-06-29T21:20:18.828Z,44.8
2017-06-29T21:31:18.969Z,43.6
2017-06-29T21:42:19.033Z,43.5
2017-06-29T21:53:18.809Z,42.3
2017-06-29T22:04:18.261Z,42.1
2017-06-29T22:15:18.464Z,41.9
2017-06-29T22:26:19.034Z,41.5
2017-06-29T22:37:18.245Z,40.6
2017-06-29T22:48:18.247Z,40
2017-06-29T22:59:18.602Z,40.1
2017-06-29T23:10:18.850Z,44.3
2017-06-29T23:21:18.497Z,45.4
2017-06-29T23:32:18.810Z,46.4
2017-06-29T23:43:18.501Z,46.3
2017-06-29T23:54:18.718Z,46.9
